sensor_id;sensor_type;location;lat;lon;timestamp;P1;durP1;ratioP1;P2;durP2;ratioP2
14066;SDS011;7108;42.684;23.350;2023-01-29T00:01:37;167.70;;;72.27;;
14066;SDS011;7108;42.684;23.350;2023-01-29T00:04:03;193.60;;;74.43;;
14066;SDS011;7108;42.684;23.350;2023-01-29T00:06:28;160.53;;;71.67;;
14066;SDS011;7108;42.684;23.350;2023-01-29T00:08:54;162.50;;;71.40;;
14066;SDS011;7108;42.684;23.350;2023-01-29T00:11:20;193.00;;;78.32;;
14066;SDS011;7108;42.684;23.350;2023-01-29T00:13:48;176.85;;;72.97;;
14066;SDS011;7108;42.684;23.350;2023-01-29T00:16:13;184.97;;;76.23;;
14066;SDS011;7108;42.684;23.350;2023-01-29T00:18:39;185.00;;;74.70;;
14066;SDS011;7108;42.684;23.350;2023-01-29T00:21:15;189.60;;;75.32;;
14066;SDS011;7108;42.684;23.350;2023-01-29T00:23:42;181.25;;;75.65;;
14066;SDS011;7108;42.684;23.350;2023-01-29T00:26:08;199.13;;;77.07;;
14066;SDS011;7108;42.684;23.350;2023-01-29T00:28:34;159.70;;;72.60;;
14066;SDS011;7108;42.684;23.350;2023-01-29T00:31:07;187.35;;;74.07;;
14066;SDS011;7108;42.684;23.350;2023-01-29T00:33:37;174.77;;;75.78;;
14066;SDS011;7108;42.684;23.350;2023-01-29T00:36:03;192.33;;;74.80;;
14066;SDS011;7108;42.684;23.350;2023-01-29T00:38:30;166.75;;;73.82;;
14066;SDS011;7108;42.684;23.350;2023-01-29T00:40:56;160.20;;;73.10;;
14066;SDS011;7108;42.684;23.350;2023-01-29T00:43:40;178.55;;;74.10;;
14066;SDS011;7108;42.684;23.350;2023-01-29T00:46:23;178.52;;;74.95;;
14066;SDS011;7108;42.684;23.350;2023-01-29T00:48:49;182.23;;;76.83;;
14066;SDS011;7108;42.684;23.350;2023-01-29T00:51:14;169.47;;;73.43;;
14066;SDS011;7108;42.684;23.350;2023-01-29T00:53:40;178.53;;;77.70;;
14066;SDS011;7108;42.684;23.350;2023-01-29T00:56:05;188.10;;;73.50;;
14066;SDS011;7108;42.684;23.350;2023-01-29T00:58:31;158.63;;;71.63;;
14066;SDS011;7108;42.684;23.350;2023-01-29T01:01:00;184.68;;;75.00;;
14066;SDS011;7108;42.684;23.350;2023-01-29T01:03:26;173.82;;;75.05;;
14066;SDS011;7108;42.684;23.350;2023-01-29T01:06:05;182.55;;;73.70;;
14066;SDS011;7108;42.684;23.350;2023-01-29T01:08:32;166.00;;;71.72;;
14066;SDS011;7108;42.684;23.350;2023-01-29T01:11:18;180.48;;;75.53;;
14066;SDS011;7108;42.684;23.350;2023-01-29T01:13:43;182.30;;;74.82;;
14066;SDS011;7108;42.684;23.350;2023-01-29T01:16:12;204.93;;;75.07;;
14066;SDS011;7108;42.684;23.350;2023-01-29T01:18:40;184.25;;;75.45;;
14066;SDS011;7108;42.684;23.350;2023-01-29T01:21:06;187.98;;;74.80;;
14066;SDS011;7108;42.684;23.350;2023-01-29T01:23:32;164.40;;;71.27;;
14066;SDS011;7108;42.684;23.350;2023-01-29T01:25:57;185.70;;;73.93;;
14066;SDS011;7108;42.684;23.350;2023-01-29T01:28:23;187.47;;;74.20;;
14066;SDS011;7108;42.684;23.350;2023-01-29T01:30:48;174.23;;;73.50;;
14066;SDS011;7108;42.684;23.350;2023-01-29T01:33:14;170.77;;;73.57;;
14066;SDS011;7108;42.684;23.350;2023-01-29T01:35:39;181.87;;;73.23;;
14066;SDS011;7108;42.684;23.350;2023-01-29T01:38:05;185.37;;;73.30;;
14066;SDS011;7108;42.684;23.350;2023-01-29T01:40:30;171.33;;;73.37;;
14066;SDS011;7108;42.684;23.350;2023-01-29T01:42:57;183.07;;;75.90;;
14066;SDS011;7108;42.684;23.350;2023-01-29T01:45:28;159.07;;;69.82;;
14066;SDS011;7108;42.684;23.350;2023-01-29T01:48:06;179.93;;;74.50;;
14066;SDS011;7108;42.684;23.350;2023-01-29T01:56:23;180.18;;;75.18;;
14066;SDS011;7108;42.684;23.350;2023-01-29T01:58:55;170.40;;;73.50;;
14066;SDS011;7108;42.684;23.350;2023-01-29T02:01:24;175.48;;;73.13;;
14066;SDS011;7108;42.684;23.350;2023-01-29T02:04:07;174.10;;;70.78;;
14066;SDS011;7108;42.684;23.350;2023-01-29T02:06:53;184.88;;;74.20;;
14066;SDS011;7108;42.684;23.350;2023-01-29T02:09:40;180.02;;;73.78;;
14066;SDS011;7108;42.684;23.350;2023-01-29T02:12:11;214.43;;;76.10;;
14066;SDS011;7108;42.684;23.350;2023-01-29T02:14:39;167.52;;;71.35;;
14066;SDS011;7108;42.684;23.350;2023-01-29T02:17:09;156.50;;;72.70;;
14066;SDS011;7108;42.684;23.350;2023-01-29T02:30:32;201.07;;;75.43;;
14066;SDS011;7108;42.684;23.350;2023-01-29T02:33:06;187.25;;;72.65;;
14066;SDS011;7108;42.684;23.350;2023-01-29T02:36:08;163.45;;;73.68;;
14066;SDS011;7108;42.684;23.350;2023-01-29T02:39:03;165.80;;;72.10;;
14066;SDS011;7108;42.684;23.350;2023-01-29T02:41:44;172.30;;;74.75;;
14066;SDS011;7108;42.684;23.350;2023-01-29T02:46:50;180.93;;;74.47;;
14066;SDS011;7108;42.684;23.350;2023-01-29T02:51:46;188.32;;;75.03;;
14066;SDS011;7108;42.684;23.350;2023-01-29T02:54:22;183.73;;;74.07;;
14066;SDS011;7108;42.684;23.350;2023-01-29T02:59:43;173.03;;;73.33;;
14066;SDS011;7108;42.684;23.350;2023-01-29T03:02:20;180.98;;;73.28;;
14066;SDS011;7108;42.684;23.350;2023-01-29T03:04:54;182.98;;;75.50;;
14066;SDS011;7108;42.684;23.350;2023-01-29T03:07:25;179.20;;;75.00;;
14066;SDS011;7108;42.684;23.350;2023-01-29T03:10:18;196.93;;;75.40;;
14066;SDS011;7108;42.684;23.350;2023-01-29T03:12:53;182.13;;;75.45;;
14066;SDS011;7108;42.684;23.350;2023-01-29T03:15:27;175.43;;;73.00;;
14066;SDS011;7108;42.684;23.350;2023-01-29T03:18:07;191.82;;;74.97;;
14066;SDS011;7108;42.684;23.350;2023-01-29T03:20:39;161.15;;;71.78;;
14066;SDS011;7108;42.684;23.350;2023-01-29T03:23:22;206.50;;;75.50;;
14066;SDS011;7108;42.684;23.350;2023-01-29T03:26:02;186.15;;;72.18;;
14066;SDS011;7108;42.684;23.350;2023-01-29T03:28:48;163.43;;;72.45;;
14066;SDS011;7108;42.684;23.350;2023-01-29T03:31:33;165.85;;;70.57;;
14066;SDS011;7108;42.684;23.350;2023-01-29T03:34:21;168.00;;;72.50;;
14066;SDS011;7108;42.684;23.350;2023-01-29T03:37:10;189.07;;;73.75;;
14066;SDS011;7108;42.684;23.350;2023-01-29T03:39:37;167.38;;;71.85;;
14066;SDS011;7108;42.684;23.350;2023-01-29T03:42:07;193.35;;;74.90;;
14066;SDS011;7108;42.684;23.350;2023-01-29T03:47:15;185.95;;;73.07;;
14066;SDS011;7108;42.684;23.350;2023-01-29T03:49:56;179.35;;;73.40;;
14066;SDS011;7108;42.684;23.350;2023-01-29T03:58:46;184.00;;;74.03;;
14066;SDS011;7108;42.684;23.350;2023-01-29T04:01:38;175.70;;;73.85;;
14066;SDS011;7108;42.684;23.350;2023-01-29T04:04:11;184.13;;;72.15;;
14066;SDS011;7108;42.684;23.350;2023-01-29T04:06:56;185.27;;;73.72;;
14066;SDS011;7108;42.684;23.350;2023-01-29T04:09:30;183.93;;;73.78;;
14066;SDS011;7108;42.684;23.350;2023-01-29T04:12:08;207.18;;;76.93;;
14066;SDS011;7108;42.684;23.350;2023-01-29T04:14:35;172.05;;;71.97;;
14066;SDS011;7108;42.684;23.350;2023-01-29T04:17:10;186.57;;;73.70;;
14066;SDS011;7108;42.684;23.350;2023-01-29T04:19:40;161.35;;;72.80;;
14066;SDS011;7108;42.684;23.350;2023-01-29T04:22:06;190.87;;;74.60;;
14066;SDS011;7108;42.684;23.350;2023-01-29T04:25:11;185.85;;;74.63;;
14066;SDS011;7108;42.684;23.350;2023-01-29T04:30:37;189.80;;;74.80;;
14066;SDS011;7108;42.684;23.350;2023-01-29T04:51:59;157.85;;;72.03;;
14066;SDS011;7108;42.684;23.350;2023-01-29T04:57:38;167.68;;;72.30;;
14066;SDS011;7108;42.684;23.350;2023-01-29T05:02:51;177.57;;;72.30;;
14066;SDS011;7108;42.684;23.350;2023-01-29T05:05:18;176.18;;;72.25;;
14066;SDS011;7108;42.684;23.350;2023-01-29T05:07:44;164.23;;;70.13;;
14066;SDS011;7108;42.684;23.350;2023-01-29T05:10:11;185.13;;;72.30;;
14066;SDS011;7108;42.684;23.350;2023-01-29T05:12:40;170.55;;;72.22;;
14066;SDS011;7108;42.684;23.350;2023-01-29T05:15:11;192.70;;;74.20;;
14066;SDS011;7108;42.684;23.350;2023-01-29T05:17:40;164.35;;;72.20;;
14066;SDS011;7108;42.684;23.350;2023-01-29T05:20:07;198.02;;;74.80;;
14066;SDS011;7108;42.684;23.350;2023-01-29T05:22:35;170.43;;;73.85;;
14066;SDS011;7108;42.684;23.350;2023-01-29T05:25:08;200.95;;;75.05;;
14066;SDS011;7108;42.684;23.350;2023-01-29T05:27:48;173.45;;;72.72;;
14066;SDS011;7108;42.684;23.350;2023-01-29T05:30:40;171.23;;;72.97;;
14066;SDS011;7108;42.684;23.350;2023-01-29T05:33:13;189.43;;;72.88;;
14066;SDS011;7108;42.684;23.350;2023-01-29T05:35:41;162.10;;;71.00;;
14066;SDS011;7108;42.684;23.350;2023-01-29T05:38:07;186.87;;;74.13;;
14066;SDS011;7108;42.684;23.350;2023-01-29T05:40:33;204.10;;;75.93;;
14066;SDS011;7108;42.684;23.350;2023-01-29T05:42:58;189.53;;;75.53;;
14066;SDS011;7108;42.684;23.350;2023-01-29T05:45:24;184.67;;;74.23;;
14066;SDS011;7108;42.684;23.350;2023-01-29T05:47:50;184.60;;;74.33;;
14066;SDS011;7108;42.684;23.350;2023-01-29T05:50:19;165.95;;;71.57;;
14066;SDS011;7108;42.684;23.350;2023-01-29T05:52:44;158.23;;;70.90;;
14066;SDS011;7108;42.684;23.350;2023-01-29T05:55:10;198.70;;;76.37;;
14066;SDS011;7108;42.684;23.350;2023-01-29T05:57:35;162.83;;;70.30;;
14066;SDS011;7108;42.684;23.350;2023-01-29T06:00:01;164.90;;;72.87;;
14066;SDS011;7108;42.684;23.350;2023-01-29T06:02:28;205.77;;;77.50;;
14066;SDS011;7108;42.684;23.350;2023-01-29T06:04:55;204.85;;;78.72;;
14066;SDS011;7108;42.684;23.350;2023-01-29T06:07:20;192.73;;;74.10;;
14066;SDS011;7108;42.684;23.350;2023-01-29T06:09:46;202.57;;;76.60;;
14066;SDS011;7108;42.684;23.350;2023-01-29T06:12:11;238.90;;;79.03;;
14066;SDS011;7108;42.684;23.350;2023-01-29T06:14:37;211.00;;;77.13;;
14066;SDS011;7108;42.684;23.350;2023-01-29T06:17:02;216.63;;;79.20;;
14066;SDS011;7108;42.684;23.350;2023-01-29T06:19:28;237.10;;;81.35;;
14066;SDS011;7108;42.684;23.350;2023-01-29T06:21:56;206.15;;;74.57;;
14066;SDS011;7108;42.684;23.350;2023-01-29T06:24:22;200.90;;;76.40;;
14066;SDS011;7108;42.684;23.350;2023-01-29T06:26:47;220.03;;;78.27;;
14066;SDS011;7108;42.684;23.350;2023-01-29T06:29:13;243.73;;;79.33;;
14066;SDS011;7108;42.684;23.350;2023-01-29T06:31:38;218.50;;;78.10;;
14066;SDS011;7108;42.684;23.350;2023-01-29T06:34:04;268.13;;;82.40;;
14066;SDS011;7108;42.684;23.350;2023-01-29T06:36:31;268.50;;;89.30;;
14066;SDS011;7108;42.684;23.350;2023-01-29T06:38:56;260.73;;;87.17;;
14066;SDS011;7108;42.684;23.350;2023-01-29T06:41:22;232.57;;;79.93;;
14066;SDS011;7108;42.684;23.350;2023-01-29T06:43:49;198.77;;;77.60;;
14066;SDS011;7108;42.684;23.350;2023-01-29T06:46:15;259.17;;;82.60;;
14066;SDS011;7108;42.684;23.350;2023-01-29T06:48:41;196.33;;;77.00;;
14066;SDS011;7108;42.684;23.350;2023-01-29T06:51:07;261.43;;;81.77;;
14066;SDS011;7108;42.684;23.350;2023-01-29T06:53:34;226.93;;;79.78;;
14066;SDS011;7108;42.684;23.350;2023-01-29T06:56:00;246.50;;;83.72;;
14066;SDS011;7108;42.684;23.350;2023-01-29T06:58:26;238.23;;;82.37;;
14066;SDS011;7108;42.684;23.350;2023-01-29T07:00:51;222.97;;;80.40;;
14066;SDS011;7108;42.684;23.350;2023-01-29T07:03:17;235.30;;;81.20;;
14066;SDS011;7108;42.684;23.350;2023-01-29T07:05:42;211.70;;;78.60;;
14066;SDS011;7108;42.684;23.350;2023-01-29T07:08:14;250.73;;;82.20;;
14066;SDS011;7108;42.684;23.350;2023-01-29T07:10:40;238.77;;;82.50;;
14066;SDS011;7108;42.684;23.350;2023-01-29T07:13:05;261.27;;;83.53;;
14066;SDS011;7108;42.684;23.350;2023-01-29T07:15:30;244.23;;;83.73;;
14066;SDS011;7108;42.684;23.350;2023-01-29T07:18:00;202.87;;;76.93;;
14066;SDS011;7108;42.684;23.350;2023-01-29T07:20:36;245.25;;;85.53;;
14066;SDS011;7108;42.684;23.350;2023-01-29T07:23:02;238.23;;;81.72;;
14066;SDS011;7108;42.684;23.350;2023-01-29T07:25:28;227.60;;;78.83;;
14066;SDS011;7108;42.684;23.350;2023-01-29T07:27:54;237.77;;;83.00;;
14066;SDS011;7108;42.684;23.350;2023-01-29T07:30:20;235.33;;;82.83;;
14066;SDS011;7108;42.684;23.350;2023-01-29T07:32:46;228.53;;;84.73;;
14066;SDS011;7108;42.684;23.350;2023-01-29T07:35:11;242.27;;;93.20;;
14066;SDS011;7108;42.684;23.350;2023-01-29T07:37:37;243.60;;;83.17;;
14066;SDS011;7108;42.684;23.350;2023-01-29T07:40:02;253.60;;;82.50;;
14066;SDS011;7108;42.684;23.350;2023-01-29T07:42:34;214.55;;;79.07;;
14066;SDS011;7108;42.684;23.350;2023-01-29T07:45:00;227.37;;;79.20;;
14066;SDS011;7108;42.684;23.350;2023-01-29T07:47:28;249.33;;;83.53;;
14066;SDS011;7108;42.684;23.350;2023-01-29T07:49:53;190.13;;;76.05;;
14066;SDS011;7108;42.684;23.350;2023-01-29T07:52:19;192.27;;;75.60;;
14066;SDS011;7108;42.684;23.350;2023-01-29T07:54:44;224.20;;;80.07;;
14066;SDS011;7108;42.684;23.350;2023-01-29T07:57:10;241.63;;;82.33;;
14066;SDS011;7108;42.684;23.350;2023-01-29T07:59:35;232.37;;;83.23;;
14066;SDS011;7108;42.684;23.350;2023-01-29T08:02:00;255.30;;;85.20;;
14066;SDS011;7108;42.684;23.350;2023-01-29T08:04:26;224.43;;;78.83;;
14066;SDS011;7108;42.684;23.350;2023-01-29T08:06:54;222.90;;;76.70;;
14066;SDS011;7108;42.684;23.350;2023-01-29T08:09:19;235.00;;;79.82;;
14066;SDS011;7108;42.684;23.350;2023-01-29T08:11:50;216.80;;;78.28;;
14066;SDS011;7108;42.684;23.350;2023-01-29T08:14:16;218.85;;;78.50;;
14066;SDS011;7108;42.684;23.350;2023-01-29T08:16:41;244.47;;;80.20;;
14066;SDS011;7108;42.684;23.350;2023-01-29T08:19:07;276.30;;;82.33;;
14066;SDS011;7108;42.684;23.350;2023-01-29T08:21:32;236.50;;;81.13;;
14066;SDS011;7108;42.684;23.350;2023-01-29T08:23:58;183.83;;;73.93;;
14066;SDS011;7108;42.684;23.350;2023-01-29T08:26:23;226.17;;;79.90;;
14066;SDS011;7108;42.684;23.350;2023-01-29T08:28:50;221.30;;;78.32;;
14066;SDS011;7108;42.684;23.350;2023-01-29T08:31:16;213.03;;;78.23;;
14066;SDS011;7108;42.684;23.350;2023-01-29T08:33:44;191.98;;;75.35;;
14066;SDS011;7108;42.684;23.350;2023-01-29T08:36:10;268.00;;;82.43;;
14066;SDS011;7108;42.684;23.350;2023-01-29T08:38:35;237.93;;;78.67;;
14066;SDS011;7108;42.684;23.350;2023-01-29T08:41:01;248.20;;;80.03;;
14066;SDS011;7108;42.684;23.350;2023-01-29T08:43:26;215.93;;;77.07;;
14066;SDS011;7108;42.684;23.350;2023-01-29T08:45:52;214.33;;;76.63;;
14066;SDS011;7108;42.684;23.350;2023-01-29T08:48:17;217.47;;;78.63;;
14066;SDS011;7108;42.684;23.350;2023-01-29T08:50:43;245.43;;;82.47;;
14066;SDS011;7108;42.684;23.350;2023-01-29T08:53:08;287.90;;;102.03;;
14066;SDS011;7108;42.684;23.350;2023-01-29T08:55:35;234.10;;;78.47;;
14066;SDS011;7108;42.684;23.350;2023-01-29T08:58:02;254.90;;;83.03;;
14066;SDS011;7108;42.684;23.350;2023-01-29T09:00:32;251.10;;;84.65;;
14066;SDS011;7108;42.684;23.350;2023-01-29T09:02:58;234.68;;;78.78;;
14066;SDS011;7108;42.684;23.350;2023-01-29T09:05:25;216.02;;;78.55;;
14066;SDS011;7108;42.684;23.350;2023-01-29T09:07:51;227.02;;;77.68;;
14066;SDS011;7108;42.684;23.350;2023-01-29T09:10:17;202.53;;;75.83;;
14066;SDS011;7108;42.684;23.350;2023-01-29T09:12:42;187.83;;;72.67;;
14066;SDS011;7108;42.684;23.350;2023-01-29T09:15:08;217.87;;;78.00;;
14066;SDS011;7108;42.684;23.350;2023-01-29T09:17:33;179.07;;;74.07;;
14066;SDS011;7108;42.684;23.350;2023-01-29T09:19:59;166.67;;;71.67;;
14066;SDS011;7108;42.684;23.350;2023-01-29T09:22:24;172.37;;;71.77;;
14066;SDS011;7108;42.684;23.350;2023-01-29T09:24:50;172.53;;;72.13;;
14066;SDS011;7108;42.684;23.350;2023-01-29T09:27:15;204.40;;;76.17;;
14066;SDS011;7108;42.684;23.350;2023-01-29T09:29:41;191.27;;;75.37;;
14066;SDS011;7108;42.684;23.350;2023-01-29T09:32:07;216.32;;;76.72;;
14066;SDS011;7108;42.684;23.350;2023-01-29T09:34:32;190.03;;;74.30;;
14066;SDS011;7108;42.684;23.350;2023-01-29T09:36:58;161.98;;;70.50;;
14066;SDS011;7108;42.684;23.350;2023-01-29T09:39:27;188.43;;;74.53;;
14066;SDS011;7108;42.684;23.350;2023-01-29T09:44:27;169.60;;;72.57;;
14066;SDS011;7108;42.684;23.350;2023-01-29T09:47:12;211.40;;;75.00;;
14066;SDS011;7108;42.684;23.350;2023-01-29T09:49:44;166.63;;;69.82;;
14066;SDS011;7108;42.684;23.350;2023-01-29T09:57:09;213.03;;;75.97;;
14066;SDS011;7108;42.684;23.350;2023-01-29T09:59:43;187.48;;;73.68;;
14066;SDS011;7108;42.684;23.350;2023-01-29T10:02:10;223.00;;;77.27;;
14066;SDS011;7108;42.684;23.350;2023-01-29T10:05:18;209.35;;;74.40;;
14066;SDS011;7108;42.684;23.350;2023-01-29T10:10:38;174.45;;;75.07;;
14066;SDS011;7108;42.684;23.350;2023-01-29T10:19:22;210.82;;;77.97;;
14066;SDS011;7108;42.684;23.350;2023-01-29T10:27:16;208.77;;;75.10;;
14066;SDS011;7108;42.684;23.350;2023-01-29T10:29:43;186.18;;;76.30;;
14066;SDS011;7108;42.684;23.350;2023-01-29T10:32:13;221.50;;;77.32;;
14066;SDS011;7108;42.684;23.350;2023-01-29T10:34:43;205.98;;;77.53;;
14066;SDS011;7108;42.684;23.350;2023-01-29T10:37:16;216.65;;;75.45;;
14066;SDS011;7108;42.684;23.350;2023-01-29T10:39:43;192.55;;;74.10;;
14066;SDS011;7108;42.684;23.350;2023-01-29T10:47:46;179.23;;;72.38;;
14066;SDS011;7108;42.684;23.350;2023-01-29T11:00:51;188.25;;;78.82;;
14066;SDS011;7108;42.684;23.350;2023-01-29T11:03:21;233.17;;;78.80;;
14066;SDS011;7108;42.684;23.350;2023-01-29T11:08:41;174.93;;;74.97;;
14066;SDS011;7108;42.684;23.350;2023-01-29T11:11:17;205.52;;;78.38;;
14066;SDS011;7108;42.684;23.350;2023-01-29T11:13:50;200.70;;;79.88;;
14066;SDS011;7108;42.684;23.350;2023-01-29T11:16:21;187.45;;;78.72;;
14066;SDS011;7108;42.684;23.350;2023-01-29T11:18:57;168.40;;;74.53;;
14066;SDS011;7108;42.684;23.350;2023-01-29T11:21:25;174.18;;;74.13;;
14066;SDS011;7108;42.684;23.350;2023-01-29T11:26:38;177.63;;;76.03;;
14066;SDS011;7108;42.684;23.350;2023-01-29T11:29:26;210.60;;;78.78;;
14066;SDS011;7108;42.684;23.350;2023-01-29T11:32:06;205.05;;;76.22;;
14066;SDS011;7108;42.684;23.350;2023-01-29T11:37:32;185.50;;;73.78;;
14066;SDS011;7108;42.684;23.350;2023-01-29T11:40:38;211.25;;;77.28;;
14066;SDS011;7108;42.684;23.350;2023-01-29T11:45:55;208.45;;;78.38;;
14066;SDS011;7108;42.684;23.350;2023-01-29T11:48:27;196.88;;;78.57;;
14066;SDS011;7108;42.684;23.350;2023-01-29T11:50:58;180.93;;;74.40;;
14066;SDS011;7108;42.684;23.350;2023-01-29T11:56:12;236.07;;;78.15;;
14066;SDS011;7108;42.684;23.350;2023-01-29T11:58:42;229.27;;;82.07;;
14066;SDS011;7108;42.684;23.350;2023-01-29T12:01:10;232.25;;;79.28;;
14066;SDS011;7108;42.684;23.350;2023-01-29T12:03:40;178.02;;;77.32;;
14066;SDS011;7108;42.684;23.350;2023-01-29T12:06:27;233.05;;;80.60;;
14066;SDS011;7108;42.684;23.350;2023-01-29T12:09:02;184.68;;;75.03;;
14066;SDS011;7108;42.684;23.350;2023-01-29T12:11:35;183.65;;;74.53;;
14066;SDS011;7108;42.684;23.350;2023-01-29T12:14:02;248.45;;;87.75;;
14066;SDS011;7108;42.684;23.350;2023-01-29T12:19:25;253.13;;;81.65;;
14066;SDS011;7108;42.684;23.350;2023-01-29T12:22:50;255.73;;;83.10;;
14066;SDS011;7108;42.684;23.350;2023-01-29T12:25:17;251.23;;;80.63;;
14066;SDS011;7108;42.684;23.350;2023-01-29T12:27:55;212.30;;;77.13;;
14066;SDS011;7108;42.684;23.350;2023-01-29T12:32:55;238.17;;;86.43;;
14066;SDS011;7108;42.684;23.350;2023-01-29T12:35:25;226.45;;;83.28;;
14066;SDS011;7108;42.684;23.350;2023-01-29T12:40:54;265.00;;;96.25;;
14066;SDS011;7108;42.684;23.350;2023-01-29T12:46:11;232.98;;;80.97;;
14066;SDS011;7108;42.684;23.350;2023-01-29T12:48:53;207.23;;;76.18;;
14066;SDS011;7108;42.684;23.350;2023-01-29T12:51:26;249.68;;;82.10;;
14066;SDS011;7108;42.684;23.350;2023-01-29T12:54:08;219.90;;;79.22;;
14066;SDS011;7108;42.684;23.350;2023-01-29T12:56:41;239.80;;;82.43;;
14066;SDS011;7108;42.684;23.350;2023-01-29T12:59:16;254.63;;;80.10;;
14066;SDS011;7108;42.684;23.350;2023-01-29T13:01:49;249.88;;;82.82;;
14066;SDS011;7108;42.684;23.350;2023-01-29T13:04:54;255.07;;;82.40;;
14066;SDS011;7108;42.684;23.350;2023-01-29T13:07:23;258.25;;;84.53;;
14066;SDS011;7108;42.684;23.350;2023-01-29T13:09:56;231.73;;;80.25;;
14066;SDS011;7108;42.684;23.350;2023-01-29T13:12:34;238.52;;;82.60;;
14066;SDS011;7108;42.684;23.350;2023-01-29T13:15:05;234.32;;;81.07;;
14066;SDS011;7108;42.684;23.350;2023-01-29T13:17:42;242.52;;;82.88;;
14066;SDS011;7108;42.684;23.350;2023-01-29T13:20:27;268.65;;;83.22;;
14066;SDS011;7108;42.684;23.350;2023-01-29T13:22:57;218.20;;;79.10;;
14066;SDS011;7108;42.684;23.350;2023-01-29T13:25:31;218.88;;;80.93;;
14066;SDS011;7108;42.684;23.350;2023-01-29T13:27:57;236.73;;;82.93;;
14066;SDS011;7108;42.684;23.350;2023-01-29T13:30:27;228.60;;;81.13;;
14066;SDS011;7108;42.684;23.350;2023-01-29T13:32:57;219.70;;;80.97;;
14066;SDS011;7108;42.684;23.350;2023-01-29T13:35:38;237.95;;;82.57;;
14066;SDS011;7108;42.684;23.350;2023-01-29T13:38:19;238.75;;;80.10;;
14066;SDS011;7108;42.684;23.350;2023-01-29T13:40:48;273.70;;;90.35;;
14066;SDS011;7108;42.684;23.350;2023-01-29T13:43:18;238.93;;;80.40;;
14066;SDS011;7108;42.684;23.350;2023-01-29T13:45:46;240.65;;;83.35;;
14066;SDS011;7108;42.684;23.350;2023-01-29T13:48:25;248.07;;;84.07;;
14066;SDS011;7108;42.684;23.350;2023-01-29T13:50:58;204.88;;;77.32;;
14066;SDS011;7108;42.684;23.350;2023-01-29T13:53:26;189.57;;;75.47;;
14066;SDS011;7108;42.684;23.350;2023-01-29T13:58:53;237.90;;;81.28;;
14066;SDS011;7108;42.684;23.350;2023-01-29T14:06:49;254.20;;;80.95;;
14066;SDS011;7108;42.684;23.350;2023-01-29T14:17:13;272.03;;;84.53;;
14066;SDS011;7108;42.684;23.350;2023-01-29T14:19:49;242.57;;;83.03;;
14066;SDS011;7108;42.684;23.350;2023-01-29T14:22:27;199.50;;;85.07;;
14066;SDS011;7108;42.684;23.350;2023-01-29T14:24:56;246.02;;;82.00;;
14066;SDS011;7108;42.684;23.350;2023-01-29T14:27:26;223.48;;;83.47;;
14066;SDS011;7108;42.684;23.350;2023-01-29T14:30:12;235.88;;;83.03;;
14066;SDS011;7108;42.684;23.350;2023-01-29T14:32:42;258.33;;;84.63;;
14066;SDS011;7108;42.684;23.350;2023-01-29T14:35:30;262.63;;;85.35;;
14066;SDS011;7108;42.684;23.350;2023-01-29T14:38:01;228.93;;;80.55;;
14066;SDS011;7108;42.684;23.350;2023-01-29T14:40:30;240.05;;;82.85;;
14066;SDS011;7108;42.684;23.350;2023-01-29T14:43:15;207.55;;;78.97;;
14066;SDS011;7108;42.684;23.350;2023-01-29T14:45:47;230.57;;;82.32;;
14066;SDS011;7108;42.684;23.350;2023-01-29T14:51:15;245.50;;;83.75;;
14066;SDS011;7108;42.684;23.350;2023-01-29T14:53:51;236.07;;;83.35;;
14066;SDS011;7108;42.684;23.350;2023-01-29T14:56:40;243.73;;;82.10;;
14066;SDS011;7108;42.684;23.350;2023-01-29T14:59:33;245.68;;;83.97;;
14066;SDS011;7108;42.684;23.350;2023-01-29T15:02:13;238.48;;;81.28;;
14066;SDS011;7108;42.684;23.350;2023-01-29T15:04:46;239.70;;;85.15;;
14066;SDS011;7108;42.684;23.350;2023-01-29T15:10:15;235.90;;;83.72;;
14066;SDS011;7108;42.684;23.350;2023-01-29T15:15:46;258.85;;;83.35;;
14066;SDS011;7108;42.684;23.350;2023-01-29T15:21:03;229.80;;;80.57;;
14066;SDS011;7108;42.684;23.350;2023-01-29T15:23:37;248.85;;;83.13;;
14066;SDS011;7108;42.684;23.350;2023-01-29T15:26:05;232.10;;;80.85;;
14066;SDS011;7108;42.684;23.350;2023-01-29T15:28:33;223.43;;;79.28;;
14066;SDS011;7108;42.684;23.350;2023-01-29T15:31:00;233.10;;;80.93;;
14066;SDS011;7108;42.684;23.350;2023-01-29T15:33:28;184.50;;;75.60;;
14066;SDS011;7108;42.684;23.350;2023-01-29T15:35:56;242.35;;;84.28;;
14066;SDS011;7108;42.684;23.350;2023-01-29T15:38:24;255.45;;;82.70;;
14066;SDS011;7108;42.684;23.350;2023-01-29T15:41:36;242.00;;;82.32;;
14066;SDS011;7108;42.684;23.350;2023-01-29T15:43:45;256.75;;;85.10;;
14066;SDS011;7108;42.684;23.350;2023-01-29T15:46:19;273.15;;;86.65;;
14066;SDS011;7108;42.684;23.350;2023-01-29T15:48:49;244.73;;;80.80;;
14066;SDS011;7108;42.684;23.350;2023-01-29T15:51:18;262.83;;;83.82;;
14066;SDS011;7108;42.684;23.350;2023-01-29T15:56:25;263.70;;;84.97;;
14066;SDS011;7108;42.684;23.350;2023-01-29T15:58:56;203.32;;;75.93;;
14066;SDS011;7108;42.684;23.350;2023-01-29T16:01:27;253.70;;;84.95;;
14066;SDS011;7108;42.684;23.350;2023-01-29T16:03:54;226.07;;;79.95;;
14066;SDS011;7108;42.684;23.350;2023-01-29T16:06:21;254.25;;;84.35;;
14066;SDS011;7108;42.684;23.350;2023-01-29T16:08:53;229.35;;;79.47;;
14066;SDS011;7108;42.684;23.350;2023-01-29T16:11:19;254.05;;;81.85;;
14066;SDS011;7108;42.684;23.350;2023-01-29T16:13:47;242.55;;;84.43;;
14066;SDS011;7108;42.684;23.350;2023-01-29T16:18:40;234.87;;;81.23;;
14066;SDS011;7108;42.684;23.350;2023-01-29T16:21:09;230.98;;;78.80;;
14066;SDS011;7108;42.684;23.350;2023-01-29T16:23:42;213.32;;;76.55;;
14066;SDS011;7108;42.684;23.350;2023-01-29T16:26:30;245.95;;;80.60;;
14066;SDS011;7108;42.684;23.350;2023-01-29T16:29:02;206.60;;;76.88;;
14066;SDS011;7108;42.684;23.350;2023-01-29T16:31:30;209.15;;;76.97;;
14066;SDS011;7108;42.684;23.350;2023-01-29T16:33:56;223.35;;;81.80;;
14066;SDS011;7108;42.684;23.350;2023-01-29T16:36:24;206.15;;;76.25;;
14066;SDS011;7108;42.684;23.350;2023-01-29T16:44:01;238.93;;;79.20;;
14066;SDS011;7108;42.684;23.350;2023-01-29T16:46:47;253.93;;;84.00;;
14066;SDS011;7108;42.684;23.350;2023-01-29T16:51:53;226.07;;;80.45;;
14066;SDS011;7108;42.684;23.350;2023-01-29T16:54:23;245.48;;;81.22;;
14066;SDS011;7108;42.684;23.350;2023-01-29T16:56:57;247.95;;;84.47;;
14066;SDS011;7108;42.684;23.350;2023-01-29T17:01:57;252.60;;;84.43;;
14066;SDS011;7108;42.684;23.350;2023-01-29T17:04:23;233.13;;;81.22;;
14066;SDS011;7108;42.684;23.350;2023-01-29T17:06:52;266.83;;;87.03;;
14066;SDS011;7108;42.684;23.350;2023-01-29T17:09:25;258.00;;;82.68;;
14066;SDS011;7108;42.684;23.350;2023-01-29T17:11:54;232.80;;;82.68;;
14066;SDS011;7108;42.684;23.350;2023-01-29T17:14:22;246.30;;;84.47;;
14066;SDS011;7108;42.684;23.350;2023-01-29T17:16:53;250.02;;;90.93;;
14066;SDS011;7108;42.684;23.350;2023-01-29T17:19:20;255.45;;;87.05;;